Time;durP1;ratioP1;P1;durP2;ratioP2;P2;SDS_P1;SDS_P2;PMS_P1;PMS_P2;Temp;Humidity;BMP_temperature;BMP_pressure;BME280_temperature;BME280_humidity;BME280_pressure;Samples;Min_cycle;Max_cycle;Signal;HPM_P1;HPM_P2
2021/10/12 00:00:43;;;;;;;;;;;;;;;;;;2115506;28;20288;-45
2021/10/12 00:01:44;;;;;;;;;;;;;;;;;;2115450;28;19924;-45
2021/10/12 00:02:45;;;;;;;;;;;;;;;;;;2115514;28;19928;-45
2021/10/12 00:03:46;;;;;;;;;;;;;;;;;;2115320;28;19923;-45
2021/10/12 00:04:46;;;;;;;;;;;;;;;;;;2115562;28;19930;-45
2021/10/12 00:05:47;;;;;;;;;;;;;;;;;;2115010;28;19924;-45
2021/10/12 00:06:48;;;;;;;;;;;;;;;;;;2115512;28;19934;-45
2021/10/12 00:07:49;;;;;;;;;;;;;;;;;;2115255;28;19930;-45
2021/10/12 00:08:50;;;;;;;;;;;;;;;;;;2115413;28;19924;-45
2021/10/12 00:09:50;;;;;;;;;;;;;;;;;;2115169;28;19932;-45
2021/10/12 00:10:51;;;;;;;;;;;;;;;;;;2115365;28;19924;-45
2021/10/12 00:11:52;;;;;;;;;;;;;;;;;;2115238;28;20415;-44
2021/10/12 00:12:53;;;;;;;;;;;;;;;;;;2115467;28;19924;-44
2021/10/12 00:13:54;;;;;;;;;;;;;;;;;;2115268;28;20399;-45
2021/10/12 00:14:54;;;;;;;;;;;;;;;;;;2115331;28;19924;-44
2021/10/12 00:15:55;;;;;;;;;;;;;;;;;;2115256;28;19949;-44
2021/10/12 00:16:56;;;;;;;;;;;;;;;;;;2115624;28;20384;-44
2021/10/12 00:17:57;;;;;;;;;;;;;;;;;;2115067;28;19928;-44
2021/10/12 00:18:58;;;;;;;;;;;;;;;;;;2115286;28;19928;-44
2021/10/12 00:19:59;;;;;;;;;;;;;;;;;;2115300;28;19928;-44
2021/10/12 00:20:59;;;;;;;;;;;;;;;;;;2115389;28;19924;-46
2021/10/12 00:22:00;;;;;;;;;;;;;;;;;;2115300;28;20330;-43
2021/10/12 00:23:01;;;;;;;;;;;;;;;;;;2115272;28;19924;-46
2021/10/12 00:24:03;;;;;;;;;;;;;;;;;;2115237;28;20278;-45
2021/10/12 00:25:04;;;;;;;;;;;;;;;;;;2115320;28;19967;-45
2021/10/12 00:26:05;;;;;;;;;;;;;;;;;;2115135;28;19924;-45
2021/10/12 00:27:06;;;;;;;;;;;;;;;;;;2115094;28;19924;-44
2021/10/12 00:28:07;;;;;;;;;;;;;;;;;;2115268;28;20431;-45
2021/10/12 00:29:07;;;;;;;;;;;;;;;;;;2115214;28;20278;-44
2021/10/12 00:30:08;;;;;;;;;;;;;;;;;;2115304;28;19924;-44
2021/10/12 00:31:09;;;;;;;;;;;;;;;;;;2115084;28;19924;-45
2021/10/12 00:32:10;;;;;;;;;;;;;;;;;;2115177;28;19930;-46
2021/10/12 00:33:11;;;;;;;;;;;;;;;;;;2114910;28;19923;-46
2021/10/12 00:34:12;;;;;;;;;;;;;;;;;;2115256;28;19924;-46
2021/10/12 00:35:12;;;;;;;;;;;;;;;;;;2115141;28;19928;-45
2021/10/12 00:36:13;;;;;;;;;;;;;;;;;;2115276;28;20284;-46
2021/10/12 00:37:14;;;;;;;;;;;;;;;;;;2115033;28;19923;-46
2021/10/12 00:38:15;;;;;;;;;;;;;;;;;;2115024;28;19924;-44
2021/10/12 00:39:16;;;;;;;;;;;;;;;;;;2115120;28;20362;-46
2021/10/12 00:40:17;;;;;;;;;;;;;;;;;;2115260;28;19928;-46
2021/10/12 00:41:17;;;;;;;;;;;;;;;;;;2115064;28;19928;-46
2021/10/12 00:42:18;;;;;;;;;;;;;;;;;;2114950;28;19923;-44
2021/10/12 00:43:25;;;;;;;;;;;;;;;;;;2115182;28;19924;-46
2021/10/12 00:44:26;;;;;;;;;;;;;;;;;;2115288;28;20060;-45
2021/10/12 00:45:27;;;;;;;;;;;;;;;;;;2115014;28;20384;-45
2021/10/12 00:46:28;;;;;;;;;;;;;;;;;;2115161;28;19960;-45
2021/10/12 00:47:29;;;;;;;;;;;;;;;;;;2115099;28;19924;-46
2021/10/12 00:48:29;;;;;;;;;;;;;;;;;;2115085;28;19963;-46
2021/10/12 00:49:30;;;;;;;;;;;;;;;;;;2115101;28;19954;-45
2021/10/12 00:50:33;;;;;;;;;;;;;;;;;;2115038;28;20339;-44
2021/10/12 00:51:33;;;;;;;;;;;;;;;;;;2115147;28;19924;-46
2021/10/12 00:52:35;;;;;;;;;;;;;;;;;;2114994;28;20385;-46
2021/10/12 00:53:36;;;;;;;;;;;;;;;;;;2115147;28;20432;-46
2021/10/12 00:54:37;;;;;;;;;;;;;;;;;;2114912;28;19928;-45
2021/10/12 00:55:38;;;;;;;;;;;;;;;;;;2115076;28;19935;-45
2021/10/12 00:56:38;;;;;;;;;;;;;;;;;;2115050;28;20373;-45
2021/10/12 00:57:39;;;;;;;;;;;;;;;;;;2115001;28;19924;-45
2021/10/12 00:58:40;;;;;;;;;;;;;;;;;;2114879;28;19924;-46
2021/10/12 00:59:41;;;;;;;;;;;;;;;;;;2115028;28;19924;-43
2021/10/12 01:00:41;;;;;;;;;;;;;;;;;;2115038;28;19931;-44
2021/10/12 01:01:42;;;;;;;;;;;;;;;;;;2115152;28;19924;-45
2021/10/12 01:02:43;;;;;;;;;;;;;;;;;;2114510;28;19923;-44
2021/10/12 01:03:44;;;;;;;;;;;;;;;;;;2115077;28;19930;-45
2021/10/12 01:04:45;;;;;;;;;;;;;;;;;;2115136;28;19924;-45
2021/10/12 01:05:46;;;;;;;;;;;;;;;;;;2114848;28;19928;-44
2021/10/12 01:06:47;;;;;;;;;;;;;;;;;;2114630;28;19924;-43
2021/10/12 01:07:48;;;;;;;;;;;;;;;;;;2114975;28;19935;-46
2021/10/12 01:08:48;;;;;;;;;;;;;;;;;;2114732;28;19924;-46
2021/10/12 01:09:49;;;;;;;;;;;;;;;;;;2114963;28;20002;-46
2021/10/12 01:10:50;;;;;;;;;;;;;;;;;;2114639;28;20344;-43
2021/10/12 01:11:51;;;;;;;;;;;;;;;;;;2114803;28;19923;-43
2021/10/12 01:12:51;;;;;;;;;;;;;;;;;;2114649;28;19969;-45
2021/10/12 01:13:52;;;;;;;;;;;;;;;;;;2114854;28;19923;-44
2021/10/12 01:14:53;;;;;;;;;;;;;;;;;;2114871;28;19972;-46
2021/10/12 01:15:54;;;;;;;;;;;;;;;;;;2114698;28;19946;-45
2021/10/12 01:16:55;;;;;;;;;;;;;;;;;;2114679;28;19930;-44
2021/10/12 01:17:56;;;;;;;;;;;;;;;;;;2114823;28;20098;-46
2021/10/12 01:18:56;;;;;;;;;;;;;;;;;;2114681;28;20369;-46
2021/10/12 01:19:57;;;;;;;;;;;;;;;;;;2114640;28;19928;-44
2021/10/12 01:20:58;;;;;;;;;;;;;;;;;;2114694;28;19927;-46
2021/10/12 01:21:59;;;;;;;;;;;;;;;;;;2114659;28;19930;-45
2021/10/12 01:23:00;;;;;;;;;;;;;;;;;;2115003;28;20376;-45
2021/10/12 01:24:00;;;;;;;;;;;;;;;;;;2114696;28;19930;-45
2021/10/12 01:25:01;;;;;;;;;;;;;;;;;;2114711;28;19946;-45
2021/10/12 01:26:02;;;;;;;;;;;;;;;;;;2114617;28;19924;-46
2021/10/12 01:27:03;;;;;;;;;;;;;;;;;;2114705;28;19972;-45
2021/10/12 01:28:04;;;;;;;;;;;;;;;;;;2114723;28;19927;-46
2021/10/12 01:29:04;;;;;;;;;;;;;;;;;;2114860;28;19931;-46
2021/10/12 01:30:05;;;;;;;;;;;;;;;;;;2114693;28;20395;-45
2021/10/12 01:31:06;;;;;;;;;;;;;;;;;;2114686;28;19923;-46
2021/10/12 01:32:07;;;;;;;;;;;;;;;;;;2114666;28;20407;-46
2021/10/12 01:33:08;;;;;;;;;;;;;;;;;;2114777;28;19927;-46
2021/10/12 01:34:09;;;;;;;;;;;;;;;;;;2114443;28;19924;-46
2021/10/12 01:35:09;;;;;;;;;;;;;;;;;;2114651;28;19938;-44
2021/10/12 01:36:10;;;;;;;;;;;;;;;;;;2114450;28;20015;-44
2021/10/12 01:37:11;;;;;;;;;;;;;;;;;;2114832;28;19930;-46
2021/10/12 01:38:12;;;;;;;;;;;;;;;;;;2114485;28;19928;-46
2021/10/12 01:39:13;;;;;;;;;;;;;;;;;;2114545;28;19928;-45
2021/10/12 01:40:15;;;;;;;;;;;;;;;;;;2114456;28;19927;-44
2021/10/12 01:41:16;;;;;;;;;;;;;;;;;;2114622;28;20456;-45
2021/10/12 01:42:17;;;;;;;;;;;;;;;;;;2114564;28;19931;-46
2021/10/12 01:43:18;;;;;;;;;;;;;;;;;;2114831;28;20467;-46
2021/10/12 01:44:19;;;;;;;;;;;;;;;;;;2114486;28;20358;-46
2021/10/12 01:45:19;;;;;;;;;;;;;;;;;;2114715;28;20130;-46
2021/10/12 01:46:20;;;;;;;;;;;;;;;;;;2114594;28;20065;-46
2021/10/12 01:47:21;;;;;;;;;;;;;;;;;;2114752;28;20322;-44
2021/10/12 01:48:22;;;;;;;;;;;;;;;;;;2114661;28;20014;-46
2021/10/12 01:49:23;;;;;;;;;;;;;;;;;;2114650;28;20014;-46
2021/10/12 01:50:24;;;;;;;;;;;;;;;;;;2114596;28;19946;-46
2021/10/12 01:51:24;;;;;;;;;;;;;;;;;;2114673;28;19973;-46
2021/10/12 01:52:25;;;;;;;;;;;;;;;;;;2114530;28;19924;-46
2021/10/12 01:53:26;;;;;;;;;;;;;;;;;;2114388;28;19924;-46
2021/10/12 01:54:27;;;;;;;;;;;;;;;;;;2114464;28;19924;-46
2021/10/12 01:55:28;;;;;;;;;;;;;;;;;;2114554;28;20277;-46
2021/10/12 01:56:28;;;;;;;;;;;;;;;;;;2114496;28;20371;-46
2021/10/12 01:57:29;;;;;;;;;;;;;;;;;;2114404;28;19924;-46
2021/10/12 01:58:30;;;;;;;;;;;;;;;;;;2114451;28;19930;-46
2021/10/12 01:59:31;;;;;;;;;;;;;;;;;;2114475;28;19977;-46
2021/10/12 02:00:32;;;;;;;;;;;;;;;;;;2114412;28;19924;-45
2021/10/12 02:01:33;;;;;;;;;;;;;;;;;;2114592;28;19924;-46
2021/10/12 02:02:34;;;;;;;;;;;;;;;;;;2114431;28;19953;-45
2021/10/12 02:03:34;;;;;;;;;;;;;;;;;;2114437;28;19924;-46
2021/10/12 02:04:35;;;;;;;;;;;;;;;;;;2114627;28;19924;-46
2021/10/12 02:05:36;;;;;;;;;;;;;;;;;;2114302;28;19984;-46
2021/10/12 02:06:37;;;;;;;;;;;;;;;;;;2114579;28;20322;-46
2021/10/12 02:07:38;;;;;;;;;;;;;;;;;;2114495;28;19927;-46
2021/10/12 02:08:39;;;;;;;;;;;;;;;;;;2114616;28;19997;-46
2021/10/12 02:09:39;;;;;;;;;;;;;;;;;;2114699;28;20353;-56
2021/10/12 02:10:40;;;;;;;;;;;;;;;;;;2114491;28;20346;-56
2021/10/12 02:11:41;;;;;;;;;;;;;;;;;;2114267;28;19923;-56
2021/10/12 02:12:42;;;;;;;;;;;;;;;;;;2114441;28;19931;-56
2021/10/12 02:13:42;;;;;;;;;;;;;;;;;;2114074;28;20352;-56
2021/10/12 02:14:43;;;;;;;;;;;;;;;;;;2114169;28;20583;-56
2021/10/12 02:15:44;;;;;;;;;;;;;;;;;;2114505;28;19939;-56
2021/10/12 02:16:45;;;;;;;;;;;;;;;;;;2114178;28;19927;-56
2021/10/12 02:17:46;;;;;;;;;;;;;;;;;;2114533;28;20292;-56
2021/10/12 02:18:47;;;;;;;;;;;;;;;;;;2114242;28;19924;-57
2021/10/12 02:19:48;;;;;;;;;;;;;;;;;;2114608;28;19927;-56
2021/10/12 02:20:49;;;;;;;;;;;;;;;;;;2114096;28;20043;-56
2021/10/12 02:21:50;;;;;;;;;;;;;;;;;;2114782;28;20090;-56
2021/10/12 02:22:50;;;;;;;;;;;;;;;;;;2114284;28;19924;-56
2021/10/12 02:23:51;;;;;;;;;;;;;;;;;;2114669;28;19924;-56
2021/10/12 02:24:52;;;;;;;;;;;;;;;;;;2114317;28;19924;-56
2021/10/12 02:25:53;;;;;;;;;;;;;;;;;;2114353;28;19923;-56
2021/10/12 02:26:54;;;;;;;;;;;;;;;;;;2114340;28;19976;-56
2021/10/12 02:27:55;;;;;;;;;;;;;;;;;;2114514;28;20278;-56
2021/10/12 02:28:55;;;;;;;;;;;;;;;;;;2114280;28;20365;-56
2021/10/12 02:29:56;;;;;;;;;;;;;;;;;;2114420;28;19978;-56
2021/10/12 02:30:57;;;;;;;;;;;;;;;;;;2114140;28;19924;-56
2021/10/12 02:31:58;;;;;;;;;;;;;;;;;;2114542;28;19931;-56
2021/10/12 02:32:59;;;;;;;;;;;;;;;;;;2114095;28;19927;-56
2021/10/12 02:33:59;;;;;;;;;;;;;;;;;;2114375;28;19977;-57
2021/10/12 02:35:00;;;;;;;;;;;;;;;;;;2114126;28;20274;-56
2021/10/12 02:36:01;;;;;;;;;;;;;;;;;;2114376;28;19985;-55
2021/10/12 02:37:02;;;;;;;;;;;;;;;;;;2114075;28;19958;-56
2021/10/12 02:38:03;;;;;;;;;;;;;;;;;;2114574;28;19946;-56
2021/10/12 02:39:04;;;;;;;;;;;;;;;;;;2113960;28;20327;-56
2021/10/12 02:40:05;;;;;;;;;;;;;;;;;;2114339;28;20014;-56
2021/10/12 02:41:06;;;;;;;;;;;;;;;;;;2114123;28;20251;-56
2021/10/12 02:42:06;;;;;;;;;;;;;;;;;;2114455;28;20266;-56
2021/10/12 02:43:07;;;;;;;;;;;;;;;;;;2114300;28;20236;-56
2021/10/12 02:44:08;;;;;;;;;;;;;;;;;;2114195;28;19928;-56
2021/10/12 02:45:09;;;;;;;;;;;;;;;;;;2114316;28;20419;-56
2021/10/12 02:46:10;;;;;;;;;;;;;;;;;;2114110;28;19977;-56
2021/10/12 02:47:11;;;;;;;;;;;;;;;;;;2114404;28;19927;-56
2021/10/12 02:48:12;;;;;;;;;;;;;;;;;;2114098;28;19952;-56
2021/10/12 02:49:13;;;;;;;;;;;;;;;;;;2114323;28;19977;-56
2021/10/12 02:50:13;;;;;;;;;;;;;;;;;;2114596;28;20059;-44
2021/10/12 02:51:14;;;;;;;;;;;;;;;;;;2114157;28;19924;-46
2021/10/12 02:52:15;;;;;;;;;;;;;;;;;;2114194;28;20019;-46
2021/10/12 02:53:17;;;;;;;;;;;;;;;;;;2114069;28;19957;-45
2021/10/12 02:54:18;;;;;;;;;;;;;;;;;;2114280;28;20403;-45
2021/10/12 02:55:19;;;;;;;;;;;;;;;;;;2114173;28;19924;-44
2021/10/12 02:56:20;;;;;;;;;;;;;;;;;;2114173;28;19967;-46
2021/10/12 02:57:21;;;;;;;;;;;;;;;;;;2114063;28;19953;-46
2021/10/12 02:58:21;;;;;;;;;;;;;;;;;;2114226;28;19935;-46
2021/10/12 02:59:22;;;;;;;;;;;;;;;;;;2114207;28;19924;-45
2021/10/12 03:00:23;;;;;;;;;;;;;;;;;;2114034;28;19927;-46
2021/10/12 03:01:24;;;;;;;;;;;;;;;;;;2114085;28;19923;-46
2021/10/12 03:02:25;;;;;;;;;;;;;;;;;;2114284;28;19931;-46
2021/10/12 03:03:26;;;;;;;;;;;;;;;;;;2114236;28;20322;-45
2021/10/12 03:04:27;;;;;;;;;;;;;;;;;;2114662;28;19923;-55
2021/10/12 03:05:27;;;;;;;;;;;;;;;;;;2114131;28;20033;-56
2021/10/12 03:06:28;;;;;;;;;;;;;;;;;;2113938;28;20285;-55
2021/10/12 03:07:31;;;;;;;;;;;;;;;;;;2114054;28;19953;-56
2021/10/12 03:08:32;;;;;;;;;;;;;;;;;;2113996;28;19976;-56
2021/10/12 03:09:33;;;;;;;;;;;;;;;;;;2114046;28;19930;-56
2021/10/12 03:10:34;;;;;;;;;;;;;;;;;;2113978;28;20381;-56
2021/10/12 03:11:34;;;;;;;;;;;;;;;;;;2114279;28;20234;-55
2021/10/12 03:12:35;;;;;;;;;;;;;;;;;;2114060;28;19977;-57
2021/10/12 03:13:36;;;;;;;;;;;;;;;;;;2114133;28;19923;-57
2021/10/12 03:14:37;;;;;;;;;;;;;;;;;;2114395;28;19967;-56
2021/10/12 03:15:38;;;;;;;;;;;;;;;;;;2114084;28;19957;-56
2021/10/12 03:16:39;;;;;;;;;;;;;;;;;;2114371;28;19951;-56
2021/10/12 03:17:39;;;;;;;;;;;;;;;;;;2113955;28;19923;-56
2021/10/12 03:18:40;;;;;;;;;;;;;;;;;;2114345;28;20364;-56
2021/10/12 03:19:41;;;;;;;;;;;;;;;;;;2114027;28;19923;-56
2021/10/12 03:20:42;;;;;;;;;;;;;;;;;;2114150;28;19951;-56
2021/10/12 03:21:49;;;;;;;;;;;;;;;;;;2113914;28;20237;-56
2021/10/12 03:22:50;;;;;;;;;;;;;;;;;;2114138;28;20435;-56
2021/10/12 03:23:50;;;;;;;;;;;;;;;;;;2114082;28;19923;-55
2021/10/12 03:24:51;;;;;;;;;;;;;;;;;;2114175;28;19924;-56
2021/10/12 03:25:52;;;;;;;;;;;;;;;;;;2115273;28;20356;-56
2021/10/12 03:26:53;;;;;;;;;;;;;;;;;;2115814;28;19923;-56
2021/10/12 03:27:54;;;;;;;;;;;;;;;;;;2115408;28;19927;-55
2021/10/12 03:28:54;;;;;;;;;;;;;;;;;;2115594;28;19977;-55
2021/10/12 03:29:55;;;;;;;;;;;;;;;;;;2115603;28;19923;-55
2021/10/12 03:30:56;;;;;;;;;;;;;;;;;;2115627;28;19931;-56
2021/10/12 03:31:59;;;;;;;;;;;;;;;;;;2115425;28;19924;-56
2021/10/12 03:33:00;;;;;;;;;;;;;;;;;;2115556;28;20401;-56
2021/10/12 03:34:01;;;;;;;;;;;;;;;;;;2115494;28;19924;-55
2021/10/12 03:35:02;;;;;;;;;;;;;;;;;;2115704;28;19923;-56
2021/10/12 03:36:12;;;;;;;;;;;;;;;;;;2115377;28;19924;-56
2021/10/12 03:37:13;;;;;;;;;;;;;;;;;;2115565;28;20064;-56
2021/10/12 03:38:14;;;;;;;;;;;;;;;;;;2115508;28;19932;-56
2021/10/12 03:39:15;;;;;;;;;;;;;;;;;;2115475;28;19930;-56
2021/10/12 03:40:16;;;;;;;;;;;;;;;;;;2115377;28;19935;-56
2021/10/12 03:41:16;;;;;;;;;;;;;;;;;;2115540;28;20399;-56
2021/10/12 03:42:17;;;;;;;;;;;;;;;;;;2115432;28;20295;-56
2021/10/12 03:43:18;;;;;;;;;;;;;;;;;;2115605;28;19976;-56
2021/10/12 03:44:19;;;;;;;;;;;;;;;;;;2115357;28;19928;-56
2021/10/12 03:45:20;;;;;;;;;;;;;;;;;;2115583;28;19924;-56
2021/10/12 03:46:20;;;;;;;;;;;;;;;;;;2115544;28;20351;-55
2021/10/12 03:47:21;;;;;;;;;;;;;;;;;;2115585;28;19928;-55
2021/10/12 03:48:22;;;;;;;;;;;;;;;;;;2115543;28;20376;-56
2021/10/12 03:49:23;;;;;;;;;;;;;;;;;;2115449;28;19924;-56
2021/10/12 03:50:24;;;;;;;;;;;;;;;;;;2115582;28;19963;-57
2021/10/12 03:51:25;;;;;;;;;;;;;;;;;;2115327;28;20431;-56
2021/10/12 03:52:25;;;;;;;;;;;;;;;;;;2115679;28;20372;-55
2021/10/12 03:53:26;;;;;;;;;;;;;;;;;;2115330;28;19924;-56
2021/10/12 03:54:27;;;;;;;;;;;;;;;;;;2115576;28;19931;-55
2021/10/12 03:55:28;;;;;;;;;;;;;;;;;;2115305;28;19947;-57
2021/10/12 03:56:29;;;;;;;;;;;;;;;;;;2115711;28;19928;-55
2021/10/12 03:57:30;;;;;;;;;;;;;;;;;;2115135;28;19977;-57
2021/10/12 03:58:30;;;;;;;;;;;;;;;;;;2115451;28;19924;-55
2021/10/12 03:59:31;;;;;;;;;;;;;;;;;;2115310;28;19924;-55
2021/10/12 04:00:32;;;;;;;;;;;;;;;;;;2115425;28;20564;-55
2021/10/12 04:01:33;;;;;;;;;;;;;;;;;;2115488;28;19924;-55
2021/10/12 04:02:34;;;;;;;;;;;;;;;;;;2115450;28;19924;-56
2021/10/12 04:03:35;;;;;;;;;;;;;;;;;;2115529;28;19966;-56
2021/10/12 04:04:35;;;;;;;;;;;;;;;;;;2115607;28;19959;-55
2021/10/12 04:05:36;;;;;;;;;;;;;;;;;;2115302;28;19956;-57
2021/10/12 04:06:37;;;;;;;;;;;;;;;;;;2115460;28;20372;-57
2021/10/12 04:07:38;;;;;;;;;;;;;;;;;;2115046;28;20346;-56
2021/10/12 04:08:39;;;;;;;;;;;;;;;;;;2115498;28;19932;-56
2021/10/12 04:09:40;;;;;;;;;;;;;;;;;;2115083;28;19969;-57
2021/10/12 04:10:40;;;;;;;;;;;;;;;;;;2115496;28;19928;-55
2021/10/12 04:11:41;;;;;;;;;;;;;;;;;;2115106;28;20307;-57
2021/10/12 04:12:42;;;;;;;;;;;;;;;;;;2115462;28;19930;-56
2021/10/12 04:13:43;;;;;;;;;;;;;;;;;;2115137;28;19923;-56
2021/10/12 04:14:43;;;;;;;;;;;;;;;;;;2115489;28;19930;-56
2021/10/12 04:15:44;;;;;;;;;;;;;;;;;;2115151;28;19924;-55
2021/10/12 04:16:45;;;;;;;;;;;;;;;;;;2115210;28;19930;-56
2021/10/12 04:17:46;;;;;;;;;;;;;;;;;;2115216;28;20410;-56
2021/10/12 04:18:47;;;;;;;;;;;;;;;;;;2115166;28;20014;-56
2021/10/12 04:19:48;;;;;;;;;;;;;;;;;;2115270;28;20003;-56
2021/10/12 04:20:49;;;;;;;;;;;;;;;;;;2115126;28;20460;-57
2021/10/12 04:21:50;;;;;;;;;;;;;;;;;;2115246;28;20066;-56
2021/10/12 04:22:51;;;;;;;;;;;;;;;;;;2115145;28;19984;-56
2021/10/12 04:23:51;;;;;;;;;;;;;;;;;;2115412;28;19923;-58
2021/10/12 04:24:52;;;;;;;;;;;;;;;;;;2115165;28;19928;-58
2021/10/12 04:25:53;;;;;;;;;;;;;;;;;;2115123;28;19924;-56
2021/10/12 04:26:55;;;;;;;;;;;;;;;;;;2115262;28;19924;-56
2021/10/12 04:27:56;;;;;;;;;;;;;;;;;;2115097;28;20418;-56
2021/10/12 04:28:57;;;;;;;;;;;;;;;;;;2115048;28;20022;-57
2021/10/12 04:29:58;;;;;;;;;;;;;;;;;;2115258;28;19972;-56
2021/10/12 04:30:59;;;;;;;;;;;;;;;;;;2115104;28;19941;-56
2021/10/12 04:31:59;;;;;;;;;;;;;;;;;;2115131;28;19978;-57
2021/10/12 04:33:00;;;;;;;;;;;;;;;;;;2115307;28;20633;-56
2021/10/12 04:34:01;;;;;;;;;;;;;;;;;;2115190;28;19929;-56
2021/10/12 04:35:02;;;;;;;;;;;;;;;;;;2115279;28;20376;-56
2021/10/12 04:36:03;;;;;;;;;;;;;;;;;;2115027;28;19923;-55
2021/10/12 04:37:04;;;;;;;;;;;;;;;;;;2114368;28;19930;-56
2021/10/12 04:38:04;;;;;;;;;;;;;;;;;;2115139;28;19924;-56
2021/10/12 04:39:05;;;;;;;;;;;;;;;;;;2115126;28;19927;-56
2021/10/12 04:40:06;;;;;;;;;;;;;;;;;;2115053;28;19924;-56
2021/10/12 04:41:07;;;;;;;;;;;;;;;;;;2114980;28;19924;-56
2021/10/12 04:42:07;;;;;;;;;;;;;;;;;;2115242;28;20369;-56
2021/10/12 04:43:08;;;;;;;;;;;;;;;;;;2115132;28;19928;-56
2021/10/12 04:44:10;;;;;;;;;;;;;;;;;;2115046;28;20301;-57
2021/10/12 04:45:11;;;;;;;;;;;;;;;;;;2115172;28;19924;-56
2021/10/12 04:46:11;;;;;;;;;;;;;;;;;;2114950;28;20478;-56
2021/10/12 04:47:12;;;;;;;;;;;;;;;;;;2115261;28;20304;-56
2021/10/12 04:48:13;;;;;;;;;;;;;;;;;;2114996;28;20320;-56
2021/10/12 04:49:14;;;;;;;;;;;;;;;;;;2115256;28;19924;-56
2021/10/12 04:50:15;;;;;;;;;;;;;;;;;;2114993;28;19924;-56
2021/10/12 04:51:16;;;;;;;;;;;;;;;;;;2115288;28;19932;-56
2021/10/12 04:52:16;;;;;;;;;;;;;;;;;;2114861;28;19950;-56
2021/10/12 04:53:17;;;;;;;;;;;;;;;;;;2115229;28;20285;-56
2021/10/12 04:54:18;;;;;;;;;;;;;;;;;;2114898;28;20272;-56
2021/10/12 04:55:19;;;;;;;;;;;;;;;;;;2115290;28;19935;-44
2021/10/12 04:56:20;;;;;;;;;;;;;;;;;;2114746;28;19931;-46
2021/10/12 04:57:21;;;;;;;;;;;;;;;;;;2115276;28;19924;-46
2021/10/12 04:58:21;;;;;;;;;;;;;;;;;;2114661;28;20399;-46
2021/10/12 04:59:22;;;;;;;;;;;;;;;;;;2115203;28;19950;-46
2021/10/12 05:00:23;;;;;;;;;;;;;;;;;;2114833;28;19946;-46
2021/10/12 05:01:24;;;;;;;;;;;;;;;;;;2115254;28;20328;-45
2021/10/12 05:02:24;;;;;;;;;;;;;;;;;;2114925;28;19923;-45
2021/10/12 05:03:26;;;;;;;;;;;;;;;;;;2115185;28;20373;-45
2021/10/12 05:04:26;;;;;;;;;;;;;;;;;;2114974;28;19967;-45
2021/10/12 05:05:27;;;;;;;;;;;;;;;;;;2115059;28;19971;-45
2021/10/12 05:06:28;;;;;;;;;;;;;;;;;;2114787;28;19981;-44
2021/10/12 05:07:29;;;;;;;;;;;;;;;;;;2115241;28;19924;-45
2021/10/12 05:08:30;;;;;;;;;;;;;;;;;;2114726;28;19924;-44
2021/10/12 05:09:30;;;;;;;;;;;;;;;;;;2115076;28;20251;-45
2021/10/12 05:10:31;;;;;;;;;;;;;;;;;;2114867;28;19968;-44
2021/10/12 05:11:32;;;;;;;;;;;;;;;;;;2115168;28;19923;-43
2021/10/12 05:12:33;;;;;;;;;;;;;;;;;;2114765;28;20429;-43
2021/10/12 05:13:34;;;;;;;;;;;;;;;;;;2115033;28;19928;-44
2021/10/12 05:14:38;;;;;;;;;;;;;;;;;;2114873;28;19924;-45
2021/10/12 05:15:46;;;;;;;;;;;;;;;;;;2115020;28;19928;-45
2021/10/12 05:16:49;;;;;;;;;;;;;;;;;;2115028;28;20344;-44
2021/10/12 05:17:50;;;;;;;;;;;;;;;;;;2114868;28;20598;-45
2021/10/12 05:18:54;;;;;;;;;;;;;;;;;;2114755;28;20380;-45
2021/10/12 05:19:55;;;;;;;;;;;;;;;;;;2114922;28;19924;-46
2021/10/12 05:20:56;;;;;;;;;;;;;;;;;;2114905;28;20253;-45
2021/10/12 05:21:57;;;;;;;;;;;;;;;;;;2115078;28;19954;-45
2021/10/12 05:22:57;;;;;;;;;;;;;;;;;;2114949;28;20281;-45
2021/10/12 05:23:58;;;;;;;;;;;;;;;;;;2114811;28;20380;-47
2021/10/12 05:24:59;;;;;;;;;;;;;;;;;;2114976;28;19976;-43
2021/10/12 05:26:00;;;;;;;;;;;;;;;;;;2114551;28;20350;-44
2021/10/12 05:27:01;;;;;;;;;;;;;;;;;;2114857;28;20034;-46
2021/10/12 05:28:02;;;;;;;;;;;;;;;;;;2114695;28;19923;-44
2021/10/12 05:29:03;;;;;;;;;;;;;;;;;;2115033;28;19977;-44
2021/10/12 05:30:03;;;;;;;;;;;;;;;;;;2114596;28;20441;-45
2021/10/12 05:31:04;;;;;;;;;;;;;;;;;;2114859;28;19924;-44
2021/10/12 05:32:05;;;;;;;;;;;;;;;;;;2114835;28;20281;-47
2021/10/12 05:33:06;;;;;;;;;;;;;;;;;;2114987;28;19992;-44
2021/10/12 05:34:08;;;;;;;;;;;;;;;;;;2114578;28;20413;-44
2021/10/12 05:35:08;;;;;;;;;;;;;;;;;;2114961;28;19928;-45
2021/10/12 05:36:09;;;;;;;;;;;;;;;;;;2114543;28;20006;-44
2021/10/12 05:37:10;;;;;;;;;;;;;;;;;;2114751;28;19923;-43
2021/10/12 05:38:11;;;;;;;;;;;;;;;;;;2114745;28;20001;-44
2021/10/12 05:39:12;;;;;;;;;;;;;;;;;;2114649;28;19924;-43
2021/10/12 05:40:13;;;;;;;;;;;;;;;;;;2114621;28;19932;-44
2021/10/12 05:41:13;;;;;;;;;;;;;;;;;;2114694;28;19942;-44
2021/10/12 05:42:14;;;;;;;;;;;;;;;;;;2114632;28;19924;-44
2021/10/12 05:43:15;;;;;;;;;;;;;;;;;;2114900;28;19923;-45
2021/10/12 05:44:16;;;;;;;;;;;;;;;;;;2114703;28;19927;-44
2021/10/12 05:45:17;;;;;;;;;;;;;;;;;;2115013;28;19928;-43
2021/10/12 05:46:21;;;;;;;;;;;;;;;;;;2114676;28;19962;-46
2021/10/12 05:47:22;;;;;;;;;;;;;;;;;;2114776;28;19930;-44
2021/10/12 05:48:23;;;;;;;;;;;;;;;;;;2114103;28;20388;-44
2021/10/12 05:49:24;;;;;;;;;;;;;;;;;;2114175;28;19937;-45
2021/10/12 05:50:25;;;;;;;;;;;;;;;;;;2114609;28;20014;-47
2021/10/12 05:51:27;;;;;;;;;;;;;;;;;;2114732;28;20283;-45
2021/10/12 05:52:29;;;;;;;;;;;;;;;;;;2114738;28;20019;-44
2021/10/12 05:53:32;;;;;;;;;;;;;;;;;;2114722;28;20014;-44
2021/10/12 05:54:37;;;;;;;;;;;;;;;;;;2114555;28;20364;-47
2021/10/12 05:55:49;;;;;;;;;;;;;;;;;;2114638;28;20008;-44
2021/10/12 05:56:56;;;;;;;;;;;;;;;;;;2114540;28;20011;-43
2021/10/12 05:58:07;;;;;;;;;;;;;;;;;;2114808;28;20057;-45
2021/10/12 05:59:08;;;;;;;;;;;;;;;;;;2114719;28;20015;-44
2021/10/12 06:00:08;;;;;;;;;;;;;;;;;;2114808;28;19934;-44
2021/10/12 06:01:09;;;;;;;;;;;;;;;;;;2114442;28;19976;-45
2021/10/12 06:02:10;;;;;;;;;;;;;;;;;;2114773;28;19924;-44
2021/10/12 06:03:12;;;;;;;;;;;;;;;;;;2114662;28;20273;-44
2021/10/12 06:04:14;;;;;;;;;;;;;;;;;;2114710;28;19973;-44
2021/10/12 06:05:14;;;;;;;;;;;;;;;;;;2114644;28;20338;-45
2021/10/12 06:06:15;;;;;;;;;;;;;;;;;;2114379;28;20365;-44
2021/10/12 06:07:16;;;;;;;;;;;;;;;;;;2114553;28;19928;-44
2021/10/12 06:08:17;;;;;;;;;;;;;;;;;;2114419;28;19924;-44
2021/10/12 06:09:18;;;;;;;;;;;;;;;;;;2114879;28;20292;-44
2021/10/12 06:10:18;;;;;;;;;;;;;;;;;;2114464;28;19935;-44
2021/10/12 06:11:19;;;;;;;;;;;;;;;;;;2114584;28;19924;-46
2021/10/12 06:12:20;;;;;;;;;;;;;;;;;;2114434;28;19924;-44
2021/10/12 06:13:23;;;;;;;;;;;;;;;;;;2114740;28;19924;-45
2021/10/12 06:14:23;;;;;;;;;;;;;;;;;;2114508;28;19924;-46
2021/10/12 06:15:24;;;;;;;;;;;;;;;;;;2114469;28;19981;-46
2021/10/12 06:16:25;;;;;;;;;;;;;;;;;;2114496;28;19923;-44
2021/10/12 06:17:26;;;;;;;;;;;;;;;;;;2114621;28;19924;-46
2021/10/12 06:18:27;;;;;;;;;;;;;;;;;;2114479;28;19946;-46
2021/10/12 06:19:28;;;;;;;;;;;;;;;;;;2114675;28;20346;-44
2021/10/12 06:20:28;;;;;;;;;;;;;;;;;;2114476;28;19957;-45
2021/10/12 06:21:31;;;;;;;;;;;;;;;;;;2114402;28;19931;-45
2021/10/12 06:22:31;;;;;;;;;;;;;;;;;;2114297;28;20015;-46
2021/10/12 06:23:32;;;;;;;;;;;;;;;;;;2114479;28;19924;-45
2021/10/12 06:24:33;;;;;;;;;;;;;;;;;;2114295;28;19924;-45
2021/10/12 06:25:34;;;;;;;;;;;;;;;;;;2114549;28;19923;-45
2021/10/12 06:26:35;;;;;;;;;;;;;;;;;;2114346;28;19923;-45
2021/10/12 06:27:35;;;;;;;;;;;;;;;;;;2114473;28;19923;-46
2021/10/12 06:28:36;;;;;;;;;;;;;;;;;;2114324;28;19930;-46
2021/10/12 06:29:37;;;;;;;;;;;;;;;;;;2114587;28;19923;-46
2021/10/12 06:30:38;;;;;;;;;;;;;;;;;;2114100;28;19993;-46
2021/10/12 06:31:39;;;;;;;;;;;;;;;;;;2114467;28;19934;-46
2021/10/12 06:32:39;;;;;;;;;;;;;;;;;;2114246;28;19923;-46
2021/10/12 06:33:40;;;;;;;;;;;;;;;;;;2114588;28;19924;-45
2021/10/12 06:34:41;;;;;;;;;;;;;;;;;;2114435;28;19968;-45
2021/10/12 06:35:42;;;;;;;;;;;;;;;;;;2114362;28;19927;-46
2021/10/12 06:36:43;;;;;;;;;;;;;;;;;;2114323;28;19931;-45
2021/10/12 06:37:44;;;;;;;;;;;;;;;;;;2114301;28;19927;-45
2021/10/12 06:38:45;;;;;;;;;;;;;;;;;;2114341;28;20435;-45
2021/10/12 06:39:45;;;;;;;;;;;;;;;;;;2114185;28;19953;-45
2021/10/12 06:40:46;;;;;;;;;;;;;;;;;;2114376;28;19955;-45
2021/10/12 06:41:47;;;;;;;;;;;;;;;;;;2114474;28;19931;-45
2021/10/12 06:42:48;;;;;;;;;;;;;;;;;;2114409;28;20280;-45
2021/10/12 06:43:49;;;;;;;;;;;;;;;;;;2114341;28;19928;-45
2021/10/12 06:44:50;;;;;;;;;;;;;;;;;;2114205;28;19931;-45
2021/10/12 06:45:50;;;;;;;;;;;;;;;;;;2114129;28;19931;-45
2021/10/12 06:46:51;;;;;;;;;;;;;;;;;;2114550;28;19924;-45
2021/10/12 06:47:52;;;;;;;;;;;;;;;;;;2114213;28;19924;-46
2021/10/12 06:48:53;;;;;;;;;;;;;;;;;;2114177;28;19924;-45
2021/10/12 06:49:54;;;;;;;;;;;;;;;;;;2114281;28;19952;-45
2021/10/12 06:50:55;;;;;;;;;;;;;;;;;;2114284;28;19994;-45
2021/10/12 06:52:12;;;;;;;;;;;;;;;;;;2114269;28;19924;-45
2021/10/12 06:53:13;;;;;;;;;;;;;;;;;;2114159;28;19928;-45
2021/10/12 06:54:14;;;;;;;;;;;;;;;;;;2114367;28;19924;-45
2021/10/12 06:55:15;;;;;;;;;;;;;;;;;;2114342;28;19924;-45
2021/10/12 06:56:16;;;;;;;;;;;;;;;;;;2114265;28;20336;-45
2021/10/12 06:57:17;;;;;;;;;;;;;;;;;;2114379;28;19935;-45